Time;durP1;ratioP1;P1;durP2;ratioP2;P2;SDS_P1;SDS_P2;PMS_P1;PMS_P2;Temp;Humidity;BMP_temperature;BMP_pressure;BME280_temperature;BME280_humidity;BME280_pressure;Samples;Min_cycle;Max_cycle;Signal;HPM_P1;HPM_P2
2021/12/22 00:00:57;;;;;;;;;43.25;36.25;;;;;4.08;55.74;101981.47;146612;691;46020;-83
2021/12/22 00:03:48;;;;;;;;;33.00;31.50;;;;;4.13;54.96;101972.56;146604;652;46918;-82
2021/12/22 00:06:41;;;;;;;;;34.25;31.00;;;;;4.19;55.03;101978.28;146604;612;46008;-81
2021/12/22 00:09:33;;;;;;;;;33.25;27.00;;;;;4.25;54.95;101973.75;146604;588;46917;-80
2021/12/22 00:12:25;;;;;;;;;33.25;29.25;;;;;4.34;55.11;101978.87;146610;579;47010;-83
2021/12/22 00:15:18;;;;;;;;;36.00;33.00;;;;;4.38;55.20;101981.84;146609;613;46010;-83
2021/12/22 00:18:10;;;;;;;;;50.00;39.00;;;;;4.42;55.38;101984.72;146609;579;46021;-80
2021/12/22 00:21:02;;;;;;;;;34.50;33.00;;;;;4.46;55.82;101980.03;146608;707;46916;-83
2021/12/22 00:23:55;;;;;;;;;40.25;34.50;;;;;4.49;55.92;101988.03;146608;778;46008;-82
2021/12/22 00:26:47;;;;;;;;;50.00;40.50;;;;;4.50;54.97;101994.97;146603;677;47010;-83
2021/12/22 00:29:39;;;;;;;;;46.75;39.75;;;;;4.53;55.88;101986.66;146610;563;47008;-84
2021/12/22 00:32:33;;;;;;;;;50.50;40.50;;;;;4.56;56.03;101998.12;146605;569;46918;-83
2021/12/22 00:35:30;;;;;;;;;51.50;43.00;;;;;4.56;55.55;102002.38;146603;585;46020;-81
2021/12/22 00:38:24;;;;;;;;;53.25;40.75;;;;;4.58;55.60;102001.75;146605;627;46010;-81
2021/12/22 00:41:17;;;;;;;;;56.00;44.00;;;;;4.58;54.97;102003.44;146612;669;46021;-82
2021/12/22 00:44:12;;;;;;;;;55.50;42.75;;;;;4.58;54.73;102004.34;146607;573;46917;-81
2021/12/22 00:47:04;;;;;;;;;47.00;38.25;;;;;4.60;54.99;102012.16;146610;564;46021;-83
2021/12/22 00:49:57;;;;;;;;;38.50;36.75;;;;;4.64;55.12;102006.56;146605;579;46010;-80
2021/12/22 00:52:49;;;;;;;;;57.75;46.75;;;;;4.68;54.57;102000.06;146608;565;47008;-81
2021/12/22 00:55:42;;;;;;;;;46.00;39.75;;;;;4.72;54.91;102007.28;146608;619;46016;-82
2021/12/22 00:58:34;;;;;;;;;65.25;51.75;;;;;4.76;55.39;102006.81;146610;614;46020;-84
2021/12/22 01:01:26;;;;;;;;;46.25;38.00;;;;;4.77;55.51;101999.28;146608;609;46017;-82
2021/12/22 01:04:19;;;;;;;;;52.25;40.75;;;;;4.77;55.06;101999.28;146602;582;46008;-81
2021/12/22 01:07:12;;;;;;;;;48.50;38.25;;;;;4.78;55.47;102002.75;146610;598;46010;-80
2021/12/22 01:10:04;;;;;;;;;40.50;35.75;;;;;4.78;54.90;102003.63;146607;609;46008;-83
2021/12/22 01:12:59;;;;;;;;;40.75;36.50;;;;;4.81;55.24;102011.62;146608;586;46016;-86
2021/12/22 01:15:51;;;;;;;;;36.25;32.25;;;;;4.82;55.12;101999.69;146608;628;46009;-84
2021/12/22 01:18:44;;;;;;;;;42.50;34.25;;;;;4.85;55.74;102003.44;146606;572;46916;-80
2021/12/22 01:21:43;;;;;;;;;41.25;35.00;;;;;4.88;55.25;102000.28;146610;569;46008;-84
2021/12/22 01:24:35;;;;;;;;;41.75;35.25;;;;;4.87;55.92;101996.81;146611;587;45917;-86
2021/12/22 01:27:29;;;;;;;;;34.50;32.75;;;;;4.83;55.34;101996.37;146612;566;46008;-81
2021/12/22 01:30:28;;;;;;;;;41.75;34.75;;;;;4.82;55.37;102003.16;146606;578;46017;-82
2021/12/22 01:33:21;;;;;;;;;52.00;40.75;;;;;4.86;54.58;101999.25;146603;680;47010;-83
2021/12/22 01:36:13;;;;;;;;;35.25;30.50;;;;;4.85;55.24;101992.28;146607;621;45029;-81
2021/12/22 01:39:07;;;;;;;;;37.50;33.75;;;;;4.84;55.94;101987.91;146611;622;46021;-79
2021/12/22 01:41:59;;;;;;;;;34.50;33.00;;;;;4.82;54.98;101992.87;146604;653;46010;-78
2021/12/22 01:51:37;;;;;;;;;38.00;33.75;;;;;4.75;55.63;101984.47;146601;626;46020;-86
2021/12/22 01:54:53;;;;;;;;;58.25;46.50;;;;;4.72;55.04;101987.66;146608;563;45017;-88
2021/12/22 01:57:52;;;;;;;;;34.50;32.00;;;;;4.75;55.50;101976.75;146609;626;46008;-81
2021/12/22 02:00:45;;;;;;;;;27.75;26.25;;;;;4.74;57.08;101973.28;146607;566;46017;-83
2021/12/22 02:03:37;;;;;;;;;31.50;27.00;;;;;4.75;57.22;101980.22;146603;569;46008;-84
2021/12/22 02:06:29;;;;;;;;;32.25;27.75;;;;;4.72;57.31;101972.22;146606;604;47010;-83
2021/12/22 02:09:51;;;;;;;;;26.50;22.00;;;;;4.72;56.84;101981.59;146612;657;46020;-77
2021/12/22 02:12:47;;;;;;;;;27.50;25.75;;;;;4.67;57.01;101980.25;146606;593;46012;-78
2021/12/22 02:15:39;;;;;;;;;27.75;25.25;;;;;4.61;57.86;101968.66;146611;572;46021;-75
2021/12/22 02:18:31;;;;;;;;;24.00;22.00;;;;;4.58;57.13;101983.78;146605;731;46917;-74
2021/12/22 02:21:26;;;;;;;;;28.75;25.25;;;;;4.54;57.58;101971.38;146609;608;47008;-76
2021/12/22 02:24:19;;;;;;;;;29.00;24.00;;;;;4.61;57.16;101978.00;146604;591;46917;-75
2021/12/22 02:27:20;;;;;;;;;29.00;24.00;;;;;4.61;57.26;101978.00;146613;604;46010;-76
2021/12/22 02:30:22;;;;;;;;;27.25;23.50;;;;;4.62;57.53;101982.41;146606;579;46016;-76
2021/12/22 02:33:25;;;;;;;;;23.50;21.50;;;;;4.65;58.28;101985.25;146603;611;46020;-76
2021/12/22 02:39:19;;;;;;;;;25.00;23.00;;;;;4.66;57.80;101991.31;146608;598;46008;-75
2021/12/22 02:42:13;;;;;;;;;23.75;23.25;;;;;4.66;57.89;101978.44;146609;575;45016;-76
2021/12/22 02:45:17;;;;;;;;;35.25;30.25;;;;;4.68;57.76;101979.50;146610;738;46009;-75
2021/12/22 02:48:09;;;;;;;;;29.50;27.50;;;;;4.68;57.86;101977.84;146606;600;47010;-78
2021/12/22 02:51:03;;;;;;;;;26.50;23.75;;;;;4.70;57.80;101975.41;146610;616;46020;-78
2021/12/22 02:54:15;;;;;;;;;33.75;27.25;;;;;4.71;58.02;101974.66;146607;568;46917;-77
2021/12/22 02:57:20;;;;;;;;;29.25;28.50;;;;;4.71;57.83;101974.66;146612;590;46008;-77
2021/12/22 03:00:45;;;;;;;;;31.25;29.75;;;;;4.75;57.38;101971.63;146606;622;47010;-78
2021/12/22 03:03:58;;;;;;;;;26.75;26.25;;;;;4.76;57.12;101970.84;146605;719;46008;-83
2021/12/22 03:10:17;;;;;;;;;30.75;24.50;;;;;4.75;57.40;101964.81;146609;575;46008;-80
2021/12/22 03:13:09;;;;;;;;;29.75;24.00;;;;;4.78;57.86;101970.22;146607;669;46029;-81
2021/12/22 03:16:02;;;;;;;;;23.00;21.75;;;;;4.79;58.81;101976.28;146615;564;46008;-73
2021/12/22 03:18:54;;;;;;;;;26.75;24.75;;;;;4.76;58.32;101974.31;146605;781;46016;-77
2021/12/22 03:21:48;;;;;;;;;42.25;35.50;;;;;4.78;58.37;101967.66;146608;597;47011;-79
2021/12/22 03:24:44;;;;;;;;;45.75;39.00;;;;;4.79;58.26;101968.56;146606;609;47010;-79
2021/12/22 03:27:36;;;;;;;;;35.50;30.50;;;;;4.82;57.45;101968.84;146610;595;46020;-80
2021/12/22 03:30:29;;;;;;;;;33.25;28.75;;;;;4.81;57.44;101964.50;146607;638;46017;-74
2021/12/22 03:33:22;;;;;;;;;31.00;28.50;;;;;4.84;57.99;101969.91;146605;636;46020;-76
2021/12/22 03:36:14;;;;;;;;;44.00;37.25;;;;;4.85;58.09;101977.75;146607;598;46917;-76
2021/12/22 03:39:09;;;;;;;;;63.50;50.75;;;;;4.85;57.98;101982.00;146611;588;46008;-84
2021/12/22 03:42:01;;;;;;;;;44.50;36.25;;;;;4.82;57.91;101985.16;146606;633;47010;-84
2021/12/22 03:44:53;;;;;;;;;75.50;58.75;;;;;4.81;57.53;101990.19;146608;570;47010;-83
2021/12/22 03:47:46;;;;;;;;;43.25;36.50;;;;;4.81;58.01;101987.62;146607;612;46016;-78
2021/12/22 03:50:38;;;;;;;;;39.25;33.50;;;;;4.81;57.06;101983.38;146607;599;46020;-78
2021/12/22 03:53:30;;;;;;;;;63.50;48.50;;;;;4.84;57.12;101981.09;146605;582;46017;-86
2021/12/22 03:56:23;;;;;;;;;44.50;36.50;;;;;4.90;55.92;101983.34;146610;593;46008;-86
2021/12/22 03:59:15;;;;;;;;;45.00;37.00;;;;;4.94;55.28;101985.44;146603;733;46918;-79
2021/12/22 04:02:08;;;;;;;;;47.25;38.50;;;;;4.97;56.06;101983.16;146601;630;47008;-82
2021/12/22 04:05:00;;;;;;;;;33.00;29.25;;;;;5.01;56.14;101981.75;146607;569;46016;-83
2021/12/22 04:07:54;;;;;;;;;37.25;31.75;;;;;5.01;55.33;101977.50;146610;625;46021;-84
2021/12/22 04:10:46;;;;;;;;;64.25;50.75;;;;;5.02;56.58;101978.44;146602;649;47010;-84
2021/12/22 04:13:39;;;;;;;;;64.25;51.00;;;;;5.02;55.99;101984.50;146607;700;46009;-80
2021/12/22 04:16:31;;;;;;;;;47.00;35.75;;;;;5.03;57.31;101982.81;146604;629;46010;-77
2021/12/22 04:19:23;;;;;;;;;52.50;42.50;;;;;4.99;57.05;101979.06;146612;604;46020;-78
2021/12/22 04:22:16;;;;;;;;;36.00;33.50;;;;;4.97;57.46;101987.38;146604;582;46012;-80
2021/12/22 04:25:11;;;;;;;;;34.50;30.75;;;;;4.95;56.67;101978.63;146607;609;46008;-80
2021/12/22 04:28:07;;;;;;;;;37.50;33.50;;;;;4.92;56.23;101976.66;146605;627;46016;-91
2021/12/22 04:30:59;;;;;;;;;40.50;34.25;;;;;4.94;56.40;101975.16;146609;727;46008;-87
2021/12/22 04:33:52;;;;;;;;;40.75;35.00;;;;;4.96;56.88;101978.78;146605;626;46012;-84
2021/12/22 04:36:45;;;;;;;;;33.75;29.25;;;;;4.94;56.97;101977.72;146614;609;46021;-85
2021/12/22 04:39:37;;;;;;;;;32.50;30.00;;;;;4.91;57.07;101980.00;146603;622;46916;-80
2021/12/22 04:42:29;;;;;;;;;38.00;31.00;;;;;4.85;58.80;101974.28;146609;636;46026;-82
2021/12/22 04:45:22;;;;;;;;;38.00;34.00;;;;;4.81;58.40;101974.75;146606;629;46917;-80
2021/12/22 04:48:14;;;;;;;;;51.25;40.00;;;;;4.75;58.29;101980.22;146611;691;46020;-79
2021/12/22 04:51:13;;;;;;;;;49.50;38.75;;;;;4.71;57.71;101974.66;146604;620;47012;-79
2021/12/22 04:57:17;;;;;;;;;40.75;35.25;;;;;4.69;58.54;101991.59;146606;662;47010;-80
2021/12/22 05:00:11;;;;;;;;;40.25;35.00;;;;;4.70;58.29;101993.38;146603;584;47008;-81
2021/12/22 05:03:04;;;;;;;;;70.00;51.50;;;;;4.72;57.50;101999.59;146605;585;46012;-82
2021/12/22 05:05:56;;;;;;;;;44.00;36.50;;;;;4.71;58.12;102000.34;146612;569;46008;-81
2021/12/22 05:08:48;;;;;;;;;43.75;36.00;;;;;4.72;58.19;102004.72;146607;563;46016;-83
2021/12/22 05:11:40;;;;;;;;;42.25;35.25;;;;;4.72;57.98;102009.87;146613;605;45026;-84
2021/12/22 05:14:33;;;;;;;;;41.75;34.25;;;;;4.74;57.92;102016.06;146604;581;47010;-79
2021/12/22 05:17:39;;;;;;;;;41.75;34.25;;;;;4.74;58.11;102018.62;146610;611;46020;-77
2021/12/22 05:20:31;;;;;;;;;48.00;36.25;;;;;4.78;57.39;102016.50;146608;584;46017;-77
2021/12/22 05:23:23;;;;;;;;;44.50;36.00;;;;;4.82;57.25;102020.25;146611;577;46020;-84
2021/12/22 05:26:16;;;;;;;;;53.75;40.75;;;;;4.83;57.46;102020.41;146604;576;47013;-83
2021/12/22 05:29:08;;;;;;;;;42.00;35.00;;;;;4.85;56.00;102013.72;146603;572;46008;-83
2021/12/22 05:32:03;;;;;;;;;36.50;34.25;;;;;4.87;54.45;102017.34;146607;584;46016;-83
2021/12/22 05:34:55;;;;;;;;;36.50;30.75;;;;;4.91;53.62;102015.09;146608;703;46008;-83
2021/12/22 05:37:47;;;;;;;;;39.00;32.75;;;;;4.94;53.38;102008.56;146611;773;46016;-75
2021/12/22 05:40:40;;;;;;;;;45.50;36.25;;;;;4.98;55.08;102008.06;146615;578;46020;-78
2021/12/22 05:43:32;;;;;;;;;40.50;36.00;;;;;5.01;55.96;102013.50;146609;571;46017;-77
2021/12/22 05:46:24;;;;;;;;;42.50;36.00;;;;;5.01;55.78;102018.66;146616;622;46008;-81
2021/12/22 05:49:16;;;;;;;;;43.75;37.50;;;;;4.99;56.62;102020.19;146611;565;46917;-82
2021/12/22 05:52:09;;;;;;;;;47.75;36.75;;;;;4.97;57.08;102016.56;146610;579;46020;-82
2021/12/22 05:55:01;;;;;;;;;49.25;37.25;;;;;4.94;56.78;102017.94;146611;674;46012;-83
2021/12/22 05:57:53;;;;;;;;;47.00;36.25;;;;;4.92;57.28;102022.03;146607;580;46021;-82
2021/12/22 06:00:46;;;;;;;;;43.75;37.75;;;;;4.89;57.21;102016.59;146612;573;46010;-80
2021/12/22 06:03:38;;;;;;;;;39.50;35.00;;;;;4.87;56.67;102019.94;146613;606;46020;-76
2021/12/22 06:06:30;;;;;;;;;41.00;35.25;;;;;4.88;56.55;102025.97;146612;625;46024;-84
2021/12/22 06:09:22;;;;;;;;;46.25;37.25;;;;;4.90;56.36;102023.56;146614;587;46020;-85
2021/12/22 06:12:15;;;;;;;;;46.25;38.25;;;;;4.91;57.15;102025.38;146613;613;46016;-80
2021/12/22 06:15:08;;;;;;;;;45.50;38.25;;;;;4.87;57.13;102032.78;146615;582;46008;-79
2021/12/22 06:18:01;;;;;;;;;46.25;35.25;;;;;4.87;56.78;102034.44;146612;616;46010;-80
2021/12/22 06:20:53;;;;;;;;;46.25;37.00;;;;;4.91;57.00;102041.69;146613;628;46021;-80
2021/12/22 06:23:46;;;;;;;;;45.00;37.00;;;;;4.92;56.63;102038.34;146614;569;46016;-82
2021/12/22 06:26:38;;;;;;;;;52.75;39.25;;;;;4.98;56.51;102041.50;146609;639;47008;-81
2021/12/22 06:29:31;;;;;;;;;53.25;42.25;;;;;5.03;56.55;102040.28;146614;564;45918;-80
2021/12/22 06:32:23;;;;;;;;;62.50;49.00;;;;;5.08;56.13;102038.16;146614;595;46023;-76
2021/12/22 06:35:15;;;;;;;;;72.50;57.25;;;;;5.15;56.82;102045.66;146615;576;45016;-85
2021/12/22 06:38:07;;;;;;;;;49.25;40.75;;;;;5.20;54.90;102052.16;146610;598;46010;-82
2021/12/22 06:41:00;;;;;;;;;57.75;45.00;;;;;5.24;53.17;102040.50;146603;648;47010;-83
2021/12/22 06:43:52;;;;;;;;;55.50;45.50;;;;;5.25;53.73;102044.84;146607;667;47008;-82
2021/12/22 06:46:46;;;;;;;;;55.75;43.25;;;;;5.25;53.20;102044.84;146607;593;46918;-82
2021/12/22 06:49:38;;;;;;;;;51.75;43.25;;;;;5.28;53.41;102045.16;146611;631;46020;-85
2021/12/22 06:52:30;;;;;;;;;56.25;46.75;;;;;5.33;53.51;102049.97;146607;575;47010;-84
2021/12/22 06:55:23;;;;;;;;;50.25;40.50;;;;;5.43;52.80;102049.16;146607;636;46008;-84
2021/12/22 06:58:15;;;;;;;;;67.25;53.00;;;;;5.50;52.68;102051.50;146606;623;46010;-87
2021/12/22 07:01:07;;;;;;;;;56.75;46.25;;;;;5.56;53.28;102052.09;146610;764;46020;-85
2021/12/22 07:04:00;;;;;;;;;52.25;41.25;;;;;5.55;52.51;102047.72;146608;565;46017;-87
2021/12/22 07:06:52;;;;;;;;;56.50;41.75;;;;;5.55;53.05;102058.00;146609;571;47008;-83
2021/12/22 07:09:44;;;;;;;;;52.25;41.25;;;;;5.58;52.79;102049.66;146608;571;46016;-89
2021/12/22 07:12:37;;;;;;;;;54.50;43.50;;;;;5.63;52.47;102050.06;146610;670;46029;-87
2021/12/22 07:15:29;;;;;;;;;58.50;45.00;;;;;5.67;52.39;102047.94;146606;668;46917;-86
2021/12/22 07:18:21;;;;;;;;;61.75;46.00;;;;;5.73;52.74;102055.28;146612;630;46008;-84
2021/12/22 07:21:13;;;;;;;;;61.00;47.00;;;;;5.77;52.41;102049.69;146610;598;46028;-83
2021/12/22 07:24:06;;;;;;;;;59.25;48.25;;;;;5.81;52.16;102045.72;146603;577;46008;-82
2021/12/22 07:26:58;;;;;;;;;54.75;44.50;;;;;5.89;52.49;102045.66;146608;641;46016;-82
2021/12/22 07:29:50;;;;;;;;;50.25;41.00;;;;;5.96;53.12;102050.63;146610;581;46020;-82
2021/12/22 07:32:43;;;;;;;;;53.00;40.75;;;;;6.07;52.88;102051.56;146605;629;46016;-83
2021/12/22 07:35:54;;;;;;;;;44.00;36.50;;;;;6.19;52.41;102050.13;146612;606;46020;-87
2021/12/22 07:39:00;;;;;;;;;48.50;36.00;;;;;6.30;51.95;102057.91;146610;618;45016;-80
2021/12/22 07:41:53;;;;;;;;;53.25;40.75;;;;;6.31;52.47;102057.16;146609;590;46010;-88
2021/12/22 07:44:45;;;;;;;;;48.75;37.50;;;;;6.33;51.23;102061.66;146604;672;47010;-83
2021/12/22 07:47:38;;;;;;;;;46.75;37.25;;;;;6.41;51.86;102070.97;146606;599;46020;-84
2021/12/22 07:50:30;;;;;;;;;41.50;35.75;;;;;6.48;51.95;102060.47;146607;599;46017;-79
2021/12/22 07:53:22;;;;;;;;;43.00;36.00;;;;;6.59;51.13;102069.12;146604;595;46020;-84
2021/12/22 07:56:15;;;;;;;;;46.50;38.25;;;;;6.66;50.39;102065.41;146607;686;46012;-84
2021/12/22 07:59:08;;;;;;;;;44.75;35.75;;;;;6.74;50.77;102069.59;146609;696;46008;-82
2021/12/22 08:02:00;;;;;;;;;34.25;32.75;;;;;6.85;50.83;102079.19;146605;791;47012;-83
2021/12/22 08:04:52;;;;;;;;;45.00;36.00;;;;;6.97;50.20;102076.75;146610;569;46021;-80
2021/12/22 08:07:44;;;;;;;;;43.75;37.00;;;;;7.08;50.11;102076.00;146603;565;46917;-73
2021/12/22 08:10:37;;;;;;;;;48.00;38.25;;;;;6.82;49.69;102016.09;146608;574;46008;-72
2021/12/22 08:13:29;;;;;;;;;52.75;41.00;;;;;7.36;49.28;102074.13;146608;653;46917;-71
2021/12/22 08:16:22;;;;;;;;;45.25;35.75;;;;;7.56;49.34;102069.75;146611;687;46020;-72
2021/12/22 08:19:14;;;;;;;;;48.25;38.75;;;;;7.75;49.35;102083.44;146607;703;46016;-72
2021/12/22 08:22:07;;;;;;;;;39.25;33.25;;;;;7.85;49.05;102085.13;146606;636;46008;-73
2021/12/22 08:24:59;;;;;;;;;44.00;35.25;;;;;7.90;48.33;102088.97;146606;564;46010;-73
2021/12/22 08:27:52;;;;;;;;;33.25;29.50;;;;;7.94;47.43;102092.72;146610;581;46010;-80
2021/12/22 08:30:44;;;;;;;;;38.50;34.50;;;;;7.86;47.79;102090.41;146608;632;46016;-73
2021/12/22 08:33:43;;;;;;;;;37.00;34.75;;;;;7.78;47.64;102088.84;146607;621;46021;-72
2021/12/22 08:39:46;;;;;;;;;37.75;28.25;;;;;7.79;48.26;102108.75;146612;570;46020;-72
2021/12/22 08:42:38;;;;;;;;;28.25;23.25;;;;;7.82;48.55;102109.00;146603;564;46918;-72
2021/12/22 08:45:30;;;;;;;;;30.50;27.00;;;;;7.85;48.90;102105.78;146612;632;46008;-72
2021/12/22 08:48:22;;;;;;;;;35.75;29.00;;;;;7.93;48.73;102112.50;146608;718;46016;-72
2021/12/22 08:51:15;;;;;;;;;31.50;28.50;;;;;8.02;48.37;102108.09;146605;626;46008;-73
2021/12/22 08:54:07;;;;;;;;;27.50;24.50;;;;;8.03;47.73;102109.00;146606;784;46016;-72
2021/12/22 08:57:00;;;;;;;;;39.00;32.00;;;;;7.97;47.97;102108.47;146608;649;46008;-72
2021/12/22 08:59:53;;;;;;;;;30.75;28.25;;;;;7.90;48.22;102116.50;146608;611;46016;-72
2021/12/22 09:02:46;;;;;;;;;27.75;25.00;;;;;7.87;48.35;102115.44;146608;577;46008;-72
2021/12/22 09:05:38;;;;;;;;;25.75;24.25;;;;;7.87;48.01;102117.13;146607;564;46016;-72
2021/12/22 09:08:30;;;;;;;;;28.50;25.50;;;;;7.88;48.63;102116.34;146610;573;46008;-73
2021/12/22 09:11:23;;;;;;;;;30.50;29.25;;;;;7.84;48.15;102111.72;146606;609;46917;-72
2021/12/22 09:14:16;;;;;;;;;39.50;33.50;;;;;7.79;48.00;102113.03;146611;606;46008;-73
2021/12/22 09:17:08;;;;;;;;;41.50;36.25;;;;;7.78;48.04;102106.03;146608;565;46016;-72
2021/12/22 09:20:00;;;;;;;;;41.50;35.00;;;;;7.85;48.91;102103.22;146601;685;46008;-72
2021/12/22 09:22:53;;;;;;;;;42.75;35.00;;;;;7.92;48.44;102094.28;146606;619;46010;-72
2021/12/22 09:25:46;;;;;;;;;44.25;34.00;;;;;7.99;48.61;102088.84;146609;629;47008;-73
2021/12/22 09:28:38;;;;;;;;;42.75;35.25;;;;;8.09;48.24;102074.22;146610;628;45016;-72
2021/12/22 09:31:30;;;;;;;;;42.25;33.75;;;;;8.23;47.27;102067.63;146611;659;46020;-72
2021/12/22 09:34:22;;;;;;;;;37.50;33.50;;;;;8.35;48.91;102062.56;146605;619;46017;-72
2021/12/22 09:37:16;;;;;;;;;42.75;35.50;;;;;8.61;47.73;102056.03;146612;578;46008;-74
2021/12/22 09:40:09;;;;;;;;;54.25;41.25;;;;;9.03;47.64;102043.00;146603;576;47011;-72
2021/12/22 09:43:01;;;;;;;;;53.75;41.75;;;;;9.53;47.07;102040.84;146610;682;46008;-71
2021/12/22 09:45:58;;;;;;;;;53.00;36.75;;;;;10.10;46.81;102032.16;146606;609;46010;-72
2021/12/22 09:49:08;;;;;;;;;53.50;41.75;;;;;10.63;45.46;102028.31;146604;582;46021;-73
2021/12/22 09:55:12;;;;;;;;;56.25;42.25;;;;;11.44;43.17;102014.94;146612;620;46008;-73
2021/12/22 09:58:06;;;;;;;;;49.25;41.00;;;;;11.56;43.52;102012.28;146606;571;46016;-72
2021/12/22 10:00:59;;;;;;;;;47.50;37.00;;;;;11.68;41.52;102002.72;146609;568;46008;-72
2021/12/22 10:03:51;;;;;;;;;49.25;39.75;;;;;11.81;42.71;102007.03;146605;666;46016;-72
2021/12/22 10:06:44;;;;;;;;;43.50;35.75;;;;;11.91;42.74;102000.78;146612;591;47020;-72
2021/12/22 10:09:36;;;;;;;;;44.50;37.50;;;;;12.02;41.75;101997.16;146606;611;46017;-73
2021/12/22 10:12:30;;;;;;;;;43.00;34.50;;;;;12.01;42.34;101995.38;146608;680;46010;-72
2021/12/22 10:15:22;;;;;;;;;29.75;25.00;;;;;11.95;41.50;101988.06;146605;584;46016;-73
2021/12/22 10:18:25;;;;;;;;;25.25;23.75;;;;;11.83;41.63;101989.81;146604;653;46010;-70
2021/12/22 10:21:23;;;;;;;;;27.50;22.75;;;;;11.85;41.66;101982.19;146604;620;46917;-69
2021/12/22 10:24:15;;;;;;;;;26.00;22.25;;;;;11.93;41.27;101984.50;146611;593;46020;-69
2021/12/22 10:27:09;;;;;;;;;23.00;19.50;;;;;12.07;40.12;101985.38;146606;577;46016;-69
2021/12/22 10:30:01;;;;;;;;;20.75;19.50;;;;;12.16;41.28;101980.78;146611;588;46008;-72
2021/12/22 10:32:53;;;;;;;;;25.25;20.75;;;;;12.18;40.13;101980.84;146603;588;47010;-69
2021/12/22 10:35:51;;;;;;;;;24.25;21.00;;;;;11.98;40.13;101983.06;146608;602;46008;-70
2021/12/22 10:38:43;;;;;;;;;26.00;21.75;;;;;11.74;40.50;101976.22;146603;575;47010;-68
2021/12/22 10:41:36;;;;;;;;;28.50;25.50;;;;;11.64;41.70;101972.09;146608;571;46008;-69
2021/12/22 10:44:49;;;;;;;;;25.00;21.75;;;;;11.64;41.87;101968.63;146605;565;46016;-69
2021/12/22 10:51:06;;;;;;;;;22.75;19.75;;;;;11.91;41.43;101967.00;146602;639;47010;-70
2021/12/22 10:53:59;;;;;;;;;24.00;21.00;;;;;12.16;41.16;101962.56;146607;630;47008;-68
2021/12/22 10:56:52;;;;;;;;;21.50;19.00;;;;;12.39;40.89;101950.12;146603;579;47012;-71
2021/12/22 10:59:53;;;;;;;;;21.75;21.00;;;;;12.60;41.06;101953.19;146611;628;47010;-69
2021/12/22 11:02:50;;;;;;;;;24.25;21.50;;;;;12.83;40.44;101950.31;146603;635;47010;-70
2021/12/22 11:05:52;;;;;;;;;22.50;19.25;;;;;12.85;40.43;101943.50;146610;651;46020;-69
2021/12/22 11:08:44;;;;;;;;;19.25;18.75;;;;;12.72;39.70;101951.34;146606;580;46917;-71
2021/12/22 11:11:41;;;;;;;;;27.00;21.00;;;;;12.56;41.63;101940.81;146610;585;47008;-72
2021/12/22 11:14:44;;;;;;;;;27.00;22.00;;;;;12.44;41.28;101935.72;146609;584;46016;-74
2021/12/22 11:17:42;;;;;;;;;22.00;21.00;;;;;12.46;40.94;101928.91;146603;579;46008;-72
2021/12/22 11:20:34;;;;;;;;;29.50;23.00;;;;;12.48;40.82;101919.50;146604;584;46010;-69
2021/12/22 11:23:27;;;;;;;;;24.50;21.00;;;;;12.67;41.42;101917.22;146612;656;45021;-71
2021/12/22 11:26:19;;;;;;;;;26.50;19.50;;;;;12.89;40.91;101914.22;146602;566;47010;-71
2021/12/22 11:29:11;;;;;;;;;19.50;18.75;;;;;13.05;40.60;101912.56;146610;598;46026;-70
2021/12/22 11:32:06;;;;;;;;;18.75;16.75;;;;;13.12;37.97;101899.13;146604;601;46918;-72
2021/12/22 11:35:05;;;;;;;;;19.25;18.50;;;;;13.15;40.61;101895.00;146612;598;46020;-71
2021/12/22 11:37:59;;;;;;;;;13.50;12.50;;;;;13.27;40.41;101891.31;146612;611;46012;-70
2021/12/22 11:41:02;;;;;;;;;21.75;18.50;;;;;13.47;40.84;101895.13;146614;566;46008;-70
2021/12/22 11:43:53;;;;;;;;;14.00;14.00;;;;;13.71;39.06;101891.31;146610;606;46010;-70
2021/12/22 11:46:46;;;;;;;;;14.75;13.50;;;;;13.76;38.92;101902.88;146607;587;46021;-70
2021/12/22 11:49:38;;;;;;;;;15.50;11.75;;;;;13.64;38.09;101894.37;146611;662;46016;-70
2021/12/22 11:52:43;;;;;;;;;16.25;15.00;;;;;13.53;39.58;101900.69;146615;625;46020;-70
2021/12/22 11:55:46;;;;;;;;;14.75;13.50;;;;;13.55;39.62;101899.97;146611;569;46016;-70
2021/12/22 11:58:39;;;;;;;;;14.50;13.50;;;;;13.54;39.78;101889.44;146615;584;46020;-71
2021/12/22 12:01:31;;;;;;;;;18.50;14.50;;;;;13.50;38.66;101887.47;146607;583;46016;-70
2021/12/22 12:04:25;;;;;;;;;13.00;12.00;;;;;13.38;38.78;101882.44;146616;632;46008;-71
2021/12/22 12:07:48;;;;;;;;;12.50;12.00;;;;;12.21;40.87;101700.22;146612;621;46010;-72
2021/12/22 12:11:00;;;;;;;;;15.50;14.50;;;;;13.30;39.61;101879.41;146614;584;46008;-71
2021/12/22 12:13:56;;;;;;;;;12.75;12.25;;;;;13.60;39.50;101871.56;146611;604;46011;-71
2021/12/22 12:23:45;;;;;;;;;19.25;15.75;;;;;13.04;40.12;101870.00;146615;573;46020;-71
2021/12/22 12:26:43;;;;;;;;;16.25;15.00;;;;;12.79;39.77;101872.84;146616;565;46016;-72
2021/12/22 12:30:24;;;;;;;;;17.75;17.25;;;;;11.39;41.25;101696.88;146617;570;46008;-70
2021/12/22 12:33:27;;;;;;;;;16.00;15.75;;;;;12.05;41.29;101869.97;146610;563;46016;-70
2021/12/22 12:36:20;;;;;;;;;21.00;20.75;;;;;11.82;42.51;101881.47;146611;779;46020;-71
2021/12/22 12:39:13;;;;;;;;;19.50;18.50;;;;;11.73;43.07;101876.59;146607;581;46010;-71
2021/12/22 12:42:05;;;;;;;;;19.75;17.00;;;;;11.72;43.18;101868.72;146609;585;46008;-71
2021/12/22 12:44:58;;;;;;;;;27.50;23.25;;;;;11.71;43.69;101862.62;146606;625;46917;-71
2021/12/22 12:47:50;;;;;;;;;23.00;21.25;;;;;11.75;43.38;101866.31;146605;563;47010;-71
2021/12/22 12:50:42;;;;;;;;;26.50;24.25;;;;;11.83;43.08;101866.78;146607;614;46016;-71
2021/12/22 12:53:40;;;;;;;;;20.50;18.00;;;;;11.83;42.02;101862.47;146611;705;46021;-71
2021/12/22 12:56:41;;;;;;;;;23.25;20.00;;;;;11.80;42.91;101868.38;146605;591;46016;-71
2021/12/22 13:00:05;;;;;;;;;16.50;16.00;;;;;10.73;43.56;101695.22;146612;698;46021;-70
2021/12/22 13:03:10;;;;;;;;;19.25;17.25;;;;;11.69;43.89;101872.00;146605;567;47012;-71
2021/12/22 13:06:02;;;;;;;;;32.00;24.50;;;;;11.64;43.42;101880.28;146609;600;46020;-71
2021/12/22 13:08:55;;;;;;;;;24.00;22.00;;;;;11.61;43.60;101870.59;146606;596;46031;-70
2021/12/22 13:12:17;;;;;;;;;18.00;16.50;;;;;11.62;42.99;101876.69;146608;594;47008;-70
2021/12/22 13:18:28;;;;;;;;;17.50;17.25;;;;;11.50;43.06;101863.81;146601;718;46020;-71
2021/12/22 13:21:29;;;;;;;;;20.25;14.75;;;;;11.40;43.61;101870.09;146605;613;47012;-72
2021/12/22 13:24:24;;;;;;;;;17.25;15.25;;;;;11.30;43.94;101865.06;146606;564;47008;-72
2021/12/22 13:27:29;;;;;;;;;12.50;11.50;;;;;11.19;43.65;101869.56;146606;573;46010;-71
2021/12/22 13:30:36;;;;;;;;;24.25;22.00;;;;;11.12;44.50;101863.84;146612;571;46008;-71
2021/12/22 13:33:35;;;;;;;;;22.50;20.50;;;;;11.16;44.32;101877.16;146608;650;46012;-71
2021/12/22 13:36:28;;;;;;;;;30.00;25.75;;;;;11.13;44.32;101873.44;146611;590;46021;-70
2021/12/22 13:39:20;;;;;;;;;21.00;17.00;;;;;10.97;44.05;101868.94;146605;586;47010;-71
2021/12/22 13:42:13;;;;;;;;;22.75;20.50;;;;;10.78;44.97;101879.75;146609;620;46008;-71
2021/12/22 13:45:05;;;;;;;;;14.00;14.00;;;;;10.61;44.32;101881.16;146609;667;46010;-72
2021/12/22 13:47:57;;;;;;;;;13.50;12.00;;;;;10.47;45.24;101887.09;146603;586;46008;-72
2021/12/22 13:50:50;;;;;;;;;19.00;17.50;;;;;10.32;45.35;101893.00;146606;666;46017;-71
2021/12/22 13:53:47;;;;;;;;;24.75;22.25;;;;;10.22;45.96;101887.00;146615;622;46020;-71
2021/12/22 13:56:41;;;;;;;;;27.75;23.75;;;;;10.07;45.66;101889.41;146605;624;46016;-71